createdAt,value
2019-04-29T00:02:11.851Z,56.10
2019-04-29T00:04:41.806Z,56.50
2019-04-29T00:07:12.282Z,58.60
2019-04-29T00:09:42.159Z,57.40
2019-04-29T00:12:12.685Z,56.90
2019-04-29T00:14:44.142Z,57.00
2019-04-29T00:17:15.621Z,59.10
2019-04-29T00:20:03.677Z,57.60
2019-04-29T00:22:33.905Z,59.90
2019-04-29T00:25:03.948Z,58.90
2019-04-29T00:27:33.853Z,59.00
2019-04-29T00:30:07.342Z,59.60
2019-04-29T00:32:37.215Z,59.30
2019-04-29T00:35:07.874Z,58.80
2019-04-29T00:37:55.705Z,60.70
2019-04-29T00:40:27.271Z,61.30
2019-04-29T00:42:58.776Z,62.20
2019-04-29T00:45:29.163Z,60.00
2019-04-29T00:47:59.019Z,64.50
2019-04-29T00:50:28.900Z,62.00
2019-04-29T00:52:58.850Z,63.50
2019-04-29T00:55:30.310Z,60.30
2019-04-29T00:58:01.146Z,62.80
2019-04-29T01:00:32.725Z,62.00
2019-04-29T01:03:02.709Z,61.10
2019-04-29T01:05:32.593Z,61.90
2019-04-29T01:08:02.518Z,65.80
2019-04-29T01:10:32.422Z,65.00
2019-04-29T01:13:02.308Z,65.20
2019-04-29T01:15:32.233Z,66.60
2019-04-29T01:18:02.115Z,63.50
2019-04-29T01:20:32.002Z,66.80
2019-04-29T01:23:01.880Z,66.60
2019-04-29T01:25:31.741Z,65.60
2019-04-29T01:28:09.505Z,67.50
2019-04-29T01:30:43.416Z,67.70
2019-04-29T01:33:13.297Z,69.10
2019-04-29T01:35:43.200Z,69.20
2019-04-29T01:38:13.056Z,70.70
2019-04-29T01:40:56.476Z,69.10
2019-04-29T01:43:28.031Z,72.70
2019-04-29T01:45:57.927Z,73.50
2019-04-29T01:48:27.802Z,74.00
2019-04-29T01:50:58.946Z,75.80
2019-04-29T01:53:28.842Z,73.20
2019-04-29T01:55:58.751Z,73.40
2019-04-29T01:58:29.566Z,74.70
2019-04-29T02:00:59.445Z,75.00
2019-04-29T02:03:29.362Z,75.30
2019-04-29T02:05:59.276Z,75.00
2019-04-29T02:08:29.240Z,78.30
2019-04-29T02:10:59.164Z,77.90
2019-04-29T02:13:29.023Z,78.30
2019-04-29T02:15:58.918Z,76.50
2019-04-29T02:18:28.839Z,77.00
2019-04-29T02:20:58.706Z,76.70
2019-04-29T02:23:39.801Z,79.00
2019-04-29T02:26:09.719Z,79.00
2019-04-29T02:28:39.641Z,76.00
2019-04-29T02:31:27.515Z,77.40
2019-04-29T02:33:57.440Z,81.20
2019-04-29T02:36:29.866Z,81.00
2019-04-29T02:39:03.239Z,81.20
2019-04-29T02:41:42.207Z,79.50
2019-04-29T02:44:13.297Z,85.10
2019-04-29T02:46:43.210Z,85.80
2019-04-29T02:49:13.095Z,82.90
2019-04-29T02:51:44.574Z,85.70
2019-04-29T02:54:15.694Z,82.90
2019-04-29T02:56:47.232Z,86.60
2019-04-29T02:59:28.822Z,84.30
2019-04-29T03:02:15.323Z,84.10
2019-04-29T03:04:52.775Z,87.70
2019-04-29T03:07:22.778Z,84.10
2019-04-29T03:09:52.695Z,80.60
2019-04-29T03:12:22.584Z,83.20
2019-04-29T03:14:52.481Z,84.50
2019-04-29T03:17:22.391Z,84.50
2019-04-29T03:20:11.843Z,84.20
2019-04-29T03:22:43.426Z,83.00
2019-04-29T03:25:13.401Z,89.40
2019-04-29T03:27:43.271Z,85.90
2019-04-29T03:30:13.375Z,86.60
2019-04-29T03:32:43.340Z,88.60
2019-04-29T03:35:13.322Z,86.10
2019-04-29T03:37:43.221Z,87.80
2019-04-29T03:40:13.126Z,87.90
2019-04-29T03:42:43.071Z,87.50
2019-04-29T03:45:13.096Z,88.10
2019-04-29T03:47:42.976Z,88.60
2019-04-29T03:50:13.000Z,87.00
2019-04-29T03:52:44.026Z,87.10
2019-04-29T03:55:13.905Z,90.30
2019-04-29T03:57:43.881Z,87.80
2019-04-29T04:00:15.674Z,90.10
2019-04-29T04:02:50.101Z,90.50
2019-04-29T04:05:24.585Z,91.00
2019-04-29T04:07:55.998Z,88.50
2019-04-29T04:10:25.965Z,89.70
2019-04-29T04:12:55.833Z,91.10
2019-04-29T04:15:25.727Z,89.70
2019-04-29T04:17:57.182Z,90.50
2019-04-29T04:20:27.491Z,90.70
2019-04-29T04:22:57.346Z,91.50
2019-04-29T04:25:27.352Z,89.80
2019-04-29T04:27:57.311Z,92.50
2019-04-29T04:30:27.302Z,91.00
2019-04-29T04:32:57.223Z,90.20
2019-04-29T04:35:27.128Z,91.20
2019-04-29T04:37:56.999Z,91.40
2019-04-29T04:40:34.237Z,91.80
2019-04-29T04:43:04.104Z,91.20
2019-04-29T04:45:33.969Z,91.00
2019-04-29T04:48:04.077Z,90.20
2019-04-29T04:50:33.941Z,89.50
2019-04-29T04:53:04.883Z,92.10
2019-04-29T04:55:36.503Z,90.30
2019-04-29T04:58:06.578Z,91.40
2019-04-29T05:00:37.601Z,92.00
2019-04-29T05:03:07.643Z,92.90
2019-04-29T05:05:37.520Z,91.70
2019-04-29T05:08:07.384Z,90.50
2019-04-29T05:10:37.260Z,91.40
2019-04-29T05:13:07.206Z,91.90
2019-04-29T05:15:37.069Z,91.20
2019-04-29T05:18:06.966Z,90.80
2019-04-29T05:20:36.879Z,91.60
2019-04-29T05:23:06.742Z,92.30
2019-04-29T05:25:36.617Z,91.40
2019-04-29T05:28:06.590Z,92.10
2019-04-29T05:30:36.507Z,93.00
2019-04-29T05:33:06.385Z,92.30
2019-04-29T05:35:40.187Z,91.20
2019-04-29T05:38:13.941Z,90.10
2019-04-29T05:40:46.400Z,91.90
2019-04-29T05:43:17.867Z,92.70
2019-04-29T05:45:55.105Z,90.40
2019-04-29T05:48:27.707Z,92.40
2019-04-29T05:50:59.237Z,91.30
2019-04-29T05:53:54.697Z,92.90
2019-04-29T05:56:21.161Z,92.20
2019-04-29T05:58:51.050Z,92.30
2019-04-29T06:01:22.534Z,92.10
2019-04-29T06:03:52.570Z,92.90
2019-04-29T06:06:23.425Z,92.30
2019-04-29T06:08:53.332Z,93.50
2019-04-29T06:11:23.498Z,92.50
2019-04-29T06:13:53.522Z,92.80
2019-04-29T06:16:23.456Z,92.70
2019-04-29T06:18:59.343Z,92.60
2019-04-29T06:21:24.885Z,92.70
2019-04-29T06:23:55.006Z,92.10
2019-04-29T06:26:26.276Z,91.60
2019-04-29T06:28:56.129Z,91.50
2019-04-29T06:31:26.006Z,92.50
2019-04-29T06:33:55.958Z,90.70
2019-04-29T06:36:25.916Z,91.40
2019-04-29T06:38:55.847Z,91.50
2019-04-29T06:41:25.715Z,90.10
2019-04-29T06:43:56.160Z,92.80
2019-04-29T06:46:26.350Z,92.40
2019-04-29T06:49:09.080Z,92.40
2019-04-29T06:51:27.889Z,92.60
2019-04-29T06:53:57.849Z,92.50
2019-04-29T06:56:27.763Z,91.90
2019-04-29T06:58:57.669Z,91.60
2019-04-29T07:01:27.839Z,90.20
2019-04-29T07:03:59.794Z,90.60
2019-04-29T07:06:29.237Z,89.10
2019-04-29T07:09:00.104Z,92.20
2019-04-29T07:11:31.733Z,90.60
2019-04-29T07:14:01.531Z,90.40
2019-04-29T07:16:32.200Z,86.90
2019-04-29T07:19:02.163Z,90.50
2019-04-29T07:21:33.119Z,91.10
2019-04-29T07:24:03.001Z,89.40
2019-04-29T07:26:32.840Z,90.50
2019-04-29T07:29:02.741Z,84.60
2019-04-29T07:31:33.506Z,91.20
2019-04-29T07:34:04.221Z,88.50
2019-04-29T07:36:34.103Z,82.70
2019-04-29T07:39:07.033Z,83.10
2019-04-29T07:41:37.009Z,83.10
2019-04-29T07:44:06.879Z,85.00
2019-04-29T07:46:56.852Z,79.40
2019-04-29T07:49:21.706Z,86.60
2019-04-29T07:51:52.631Z,86.30
2019-04-29T07:54:22.533Z,83.30
2019-04-29T07:56:52.382Z,80.70
2019-04-29T07:59:23.323Z,76.60
2019-04-29T08:01:55.598Z,77.00
2019-04-29T08:04:24.885Z,79.80
2019-04-29T08:06:55.563Z,76.10
2019-04-29T08:09:26.079Z,76.50
2019-04-29T08:11:56.175Z,71.70
2019-04-29T08:14:27.256Z,69.20
2019-04-29T08:16:57.102Z,76.00
2019-04-29T08:19:29.404Z,70.40
2019-04-29T08:21:58.499Z,75.00
2019-04-29T08:24:28.461Z,73.60
2019-04-29T08:26:58.331Z,71.10
2019-04-29T08:29:30.853Z,69.50
2019-04-29T08:32:02.215Z,70.50
2019-04-29T08:34:31.283Z,62.50
2019-04-29T08:37:01.157Z,62.90
2019-04-29T08:39:31.289Z,61.60
2019-04-29T08:42:03.715Z,61.60
2019-04-29T08:44:44.845Z,65.40
2019-04-29T08:47:22.955Z,59.00
2019-04-29T08:49:50.719Z,59.40
2019-04-29T08:52:21.797Z,58.70
2019-04-29T08:54:55.492Z,58.10
2019-04-29T08:57:23.293Z,59.00
2019-04-29T08:59:53.269Z,56.10
2019-04-29T09:02:34.552Z,55.10
2019-04-29T09:04:54.782Z,53.60
2019-04-29T09:07:24.642Z,51.60
2019-04-29T09:09:56.058Z,52.80
2019-04-29T09:12:29.415Z,52.70
2019-04-29T09:14:57.767Z,54.00
2019-04-29T09:17:28.652Z,53.20
2019-04-29T09:19:58.605Z,51.60
2019-04-29T09:22:30.057Z,50.70
2019-04-29T09:25:16.485Z,50.10
2019-04-29T09:27:46.683Z,53.10
2019-04-29T09:30:18.078Z,50.80
2019-04-29T09:32:48.045Z,51.30
2019-04-29T09:35:17.978Z,50.70
2019-04-29T09:37:47.873Z,50.00
2019-04-29T09:40:24.690Z,48.70
2019-04-29T09:42:59.153Z,48.90
2019-04-29T09:45:39.926Z,47.70
2019-04-29T09:48:09.792Z,49.20
2019-04-29T09:50:40.993Z,47.90
2019-04-29T09:53:11.013Z,46.20
2019-04-29T09:55:41.328Z,48.30
2019-04-29T09:58:11.334Z,49.40
2019-04-29T10:00:42.935Z,49.60
2019-04-29T10:03:17.152Z,50.30
2019-04-29T10:05:57.946Z,50.70
2019-04-29T10:08:28.066Z,49.80
2019-04-29T10:10:58.198Z,48.60
2019-04-29T10:13:28.090Z,48.80
2019-04-29T10:16:15.829Z,46.90
2019-04-29T10:19:00.736Z,48.00
2019-04-29T10:21:31.945Z,48.50
2019-04-29T10:24:01.810Z,45.50
2019-04-29T10:26:31.736Z,46.50
2019-04-29T10:29:03.246Z,45.10
2019-04-29T10:31:33.170Z,47.70
2019-04-29T10:34:03.261Z,49.10
2019-04-29T10:36:33.139Z,45.40
2019-04-29T10:39:04.549Z,45.20
2019-04-29T10:41:40.396Z,45.80
2019-04-29T10:44:11.059Z,47.00
2019-04-29T10:46:58.086Z,44.20
2019-04-29T10:49:39.197Z,44.50
2019-04-29T10:52:07.752Z,43.20
2019-04-29T10:54:37.689Z,42.30
2019-04-29T10:57:10.593Z,43.80
2019-04-29T10:59:44.892Z,43.20
2019-04-29T11:02:28.028Z,44.10
2019-04-29T11:05:15.444Z,45.10
2019-04-29T11:07:46.961Z,45.20
2019-04-29T11:10:25.234Z,45.40
2019-04-29T11:12:51.805Z,43.50
2019-04-29T11:15:23.371Z,45.20
2019-04-29T11:17:59.409Z,43.30
2019-04-29T11:20:25.205Z,45.00
2019-04-29T11:23:09.791Z,43.40
2019-04-29T11:25:40.624Z,41.20
2019-04-29T11:28:12.156Z,42.50
2019-04-29T11:30:42.428Z,42.40
2019-04-29T11:33:19.883Z,42.90
2019-04-29T11:35:51.339Z,40.70
2019-04-29T11:38:21.649Z,42.80
2019-04-29T11:40:52.041Z,41.60
2019-04-29T11:43:22.359Z,41.50
2019-04-29T11:45:52.312Z,41.30
2019-04-29T11:48:22.237Z,40.40
2019-04-29T11:51:02.324Z,40.80
2019-04-29T11:53:32.257Z,40.70
2019-04-29T11:56:02.103Z,40.60
2019-04-29T11:58:39.335Z,40.00
2019-04-29T12:01:10.855Z,40.30
2019-04-29T12:03:42.324Z,40.70
2019-04-29T12:06:16.187Z,40.30
2019-04-29T12:08:51.318Z,40.10
2019-04-29T12:11:17.711Z,39.70
2019-04-29T12:13:51.934Z,40.90
2019-04-29T12:16:35.590Z,38.30
2019-04-29T12:19:10.188Z,38.10
2019-04-29T12:21:41.918Z,39.20
2019-04-29T12:24:11.932Z,39.40
2019-04-29T12:26:44.250Z,39.60
2019-04-29T12:29:17.634Z,37.90
2019-04-29T12:32:02.521Z,38.90
2019-04-29T12:34:40.270Z,40.00
2019-04-29T12:37:11.776Z,38.50
2019-04-29T12:39:52.073Z,37.50
2019-04-29T12:42:40.334Z,37.90
2019-04-29T12:45:19.162Z,38.70
2019-04-29T12:47:44.677Z,38.60
2019-04-29T12:50:17.562Z,36.40
2019-04-29T12:52:46.426Z,38.30
2019-04-29T12:55:21.926Z,36.60
2019-04-29T12:57:51.384Z,36.70
2019-04-29T13:00:22.539Z,37.70
2019-04-29T13:03:00.279Z,36.10
2019-04-29T13:05:36.256Z,36.60
2019-04-29T13:08:07.701Z,38.10
2019-04-29T13:10:45.247Z,37.60
2019-04-29T13:13:15.753Z,37.80
2019-04-29T13:16:00.938Z,36.70
2019-04-29T13:18:54.048Z,37.30
2019-04-29T13:21:22.410Z,37.80
2019-04-29T13:24:04.808Z,34.80
2019-04-29T13:26:28.227Z,38.00
2019-04-29T13:29:00.791Z,37.70
2019-04-29T13:31:38.144Z,37.00
2019-04-29T13:34:08.968Z,35.10
2019-04-29T13:36:31.512Z,35.60
2019-04-29T13:39:01.765Z,37.00
2019-04-29T13:41:33.469Z,36.60
2019-04-29T13:44:07.357Z,34.50
2019-04-29T13:46:37.870Z,35.80
2019-04-29T13:49:15.277Z,37.80
2019-04-29T13:51:47.024Z,37.20
2019-04-29T13:54:16.853Z,37.60
2019-04-29T13:56:56.077Z,37.90
2019-04-29T13:59:21.156Z,36.20
2019-04-29T14:02:01.252Z,36.50
2019-04-29T14:04:26.221Z,36.60
2019-04-29T14:06:57.508Z,35.10
2019-04-29T14:09:27.870Z,35.90
2019-04-29T14:12:02.112Z,36.00
2019-04-29T14:14:29.270Z,36.30
2019-04-29T14:17:11.925Z,36.00
2019-04-29T14:19:40.952Z,35.70
2019-04-29T14:22:02.489Z,36.40
2019-04-29T14:24:32.450Z,35.10
2019-04-29T14:27:02.549Z,35.80
2019-04-29T14:29:32.631Z,34.90
2019-04-29T14:32:02.644Z,34.00
2019-04-29T14:34:44.503Z,35.40
2019-04-29T14:37:25.245Z,36.00
2019-04-29T14:39:46.041Z,35.50
2019-04-29T14:42:25.626Z,35.10
2019-04-29T14:44:56.754Z,34.70
2019-04-29T14:47:31.246Z,34.80
2019-04-29T14:50:02.771Z,34.40
2019-04-29T14:52:33.631Z,34.10
2019-04-29T14:55:03.560Z,34.00
2019-04-29T14:57:33.420Z,33.50
2019-04-29T15:00:04.064Z,35.40
2019-04-29T15:02:34.505Z,32.70
2019-04-29T15:05:07.439Z,35.80
2019-04-29T15:07:38.060Z,34.90
2019-04-29T15:10:09.145Z,36.30
2019-04-29T15:12:51.217Z,34.00
2019-04-29T15:15:22.881Z,35.70
2019-04-29T15:17:54.318Z,35.50
2019-04-29T15:20:30.267Z,36.30
2019-04-29T15:22:57.314Z,36.80
2019-04-29T15:25:27.195Z,36.10
2019-04-29T15:27:57.121Z,36.40
2019-04-29T15:30:27.103Z,34.70
2019-04-29T15:32:58.071Z,36.30
2019-04-29T15:35:28.497Z,36.50
2019-04-29T15:37:58.377Z,36.80
2019-04-29T15:40:28.775Z,35.50
2019-04-29T15:42:58.867Z,35.40
2019-04-29T15:45:32.300Z,35.30
2019-04-29T15:48:00.377Z,36.10
2019-04-29T15:50:32.614Z,35.90
2019-04-29T15:53:03.020Z,35.50
2019-04-29T15:58:05.161Z,35.80
2019-04-29T16:03:06.844Z,36.30
2019-04-29T16:06:04.483Z,36.10
2019-04-29T16:08:20.326Z,36.70
2019-04-29T16:11:08.176Z,36.70
2019-04-29T16:13:38.084Z,35.80
2019-04-29T16:16:07.990Z,37.20
2019-04-29T16:18:38.830Z,38.20
2019-04-29T16:21:08.705Z,38.00
2019-04-29T16:23:40.175Z,37.70
2019-04-29T16:26:10.143Z,37.10
2019-04-29T16:28:40.323Z,37.00
2019-04-29T16:31:12.078Z,38.10
2019-04-29T16:33:47.597Z,37.40
2019-04-29T16:36:13.523Z,38.60
2019-04-29T16:38:46.261Z,38.30
2019-04-29T16:41:34.730Z,38.50
2019-04-29T16:44:06.778Z,38.80
2019-04-29T16:49:08.402Z,39.50
2019-04-29T16:51:38.420Z,39.30
2019-04-29T16:54:12.859Z,39.60
2019-04-29T16:56:39.893Z,39.90
2019-04-29T16:59:09.810Z,40.30
2019-04-29T17:01:39.757Z,39.40
2019-04-29T17:04:09.663Z,40.40
2019-04-29T17:06:41.660Z,39.00
2019-04-29T17:09:12.631Z,40.60
2019-04-29T17:11:44.203Z,41.90
2019-04-29T17:14:14.287Z,43.10
2019-04-29T17:16:44.274Z,43.10
2019-04-29T17:19:14.307Z,44.10
2019-04-29T17:21:44.223Z,43.30
2019-04-29T17:24:14.226Z,44.00
2019-04-29T17:26:45.755Z,44.10
2019-04-29T17:29:38.554Z,44.30
2019-04-29T17:32:07.795Z,44.90
2019-04-29T17:34:58.027Z,45.80
2019-04-29T17:35:13.887Z,35.50
2019-04-29T17:35:14.927Z,36.10
2019-04-29T17:35:18.771Z,39.40
2019-04-29T17:37:11.393Z,46.10
2019-04-29T17:39:41.411Z,45.80
2019-04-29T17:42:11.548Z,46.30
2019-04-29T17:44:45.706Z,46.60
2019-04-29T17:47:33.517Z,46.70
2019-04-29T17:50:14.333Z,47.20
2019-04-29T17:52:44.506Z,47.20
2019-04-29T17:55:16.265Z,47.30
2019-04-29T17:57:47.935Z,48.30
2019-04-29T18:00:22.252Z,48.10
2019-04-29T18:02:57.387Z,48.50
2019-04-29T18:05:33.145Z,48.70
2019-04-29T18:08:02.977Z,48.90
2019-04-29T18:10:40.629Z,49.60
2019-04-29T18:13:12.299Z,50.00
2019-04-29T18:15:57.882Z,50.50
2019-04-29T18:18:17.502Z,50.90
2019-04-29T18:20:59.499Z,51.10
2019-04-29T18:23:40.939Z,50.50
2019-04-29T18:26:12.365Z,51.20
2019-04-29T18:28:42.425Z,51.10
2019-04-29T18:31:13.426Z,51.60
2019-04-29T18:33:45.039Z,51.50
2019-04-29T18:36:23.664Z,51.40
2019-04-29T18:38:50.001Z,51.60
2019-04-29T18:41:24.867Z,51.60
2019-04-29T18:43:49.893Z,52.50
2019-04-29T18:46:19.816Z,52.30
2019-04-29T18:48:49.747Z,52.50
2019-04-29T18:51:20.830Z,53.00
2019-04-29T18:53:51.236Z,53.10
2019-04-29T18:56:21.147Z,53.10
2019-04-29T18:58:51.262Z,52.40
2019-04-29T19:01:24.145Z,52.90
2019-04-29T19:04:16.129Z,52.90
2019-04-29T19:06:42.583Z,52.80
2019-04-29T19:09:19.804Z,53.80
2019-04-29T19:11:46.289Z,53.90
2019-04-29T19:14:16.508Z,54.30
2019-04-29T19:16:46.478Z,53.80
2019-04-29T19:19:18.743Z,54.60
2019-04-29T19:21:48.131Z,55.00
2019-04-29T19:24:20.011Z,54.60
2019-04-29T19:26:55.632Z,55.00
2019-04-29T19:29:21.713Z,55.40
2019-04-29T19:31:51.705Z,55.30
2019-04-29T19:34:21.702Z,55.80
2019-04-29T19:36:55.743Z,56.20
2019-04-29T19:39:25.162Z,57.20
2019-04-29T19:41:55.731Z,57.40
2019-04-29T19:44:32.651Z,57.20
2019-04-29T19:46:59.143Z,57.60
2019-04-29T19:49:29.224Z,58.00
2019-04-29T19:51:59.252Z,58.40
2019-04-29T19:54:29.183Z,58.90
2019-04-29T19:57:03.433Z,59.20
2019-04-29T19:59:31.107Z,60.30
2019-04-29T20:02:05.227Z,59.80
2019-04-29T20:04:52.422Z,60.90
2019-04-29T20:07:20.382Z,61.30
2019-04-29T20:10:01.937Z,61.70
2019-04-29T20:12:25.440Z,61.30
2019-04-29T20:14:59.716Z,62.60
2019-04-29T20:17:49.250Z,62.30
2019-04-29T20:20:22.461Z,61.80
2019-04-29T20:22:52.484Z,63.20
2019-04-29T20:25:30.286Z,62.00
2019-04-29T20:28:05.519Z,63.70
2019-04-29T20:30:26.888Z,60.50
2019-04-29T20:33:00.926Z,62.80
2019-04-29T20:35:28.547Z,60.90
2019-04-29T20:38:00.138Z,64.50
2019-04-29T20:40:35.330Z,64.60
2019-04-29T20:43:01.767Z,64.00
2019-04-29T20:45:33.073Z,61.60
2019-04-29T20:48:03.573Z,64.70
2019-04-29T20:50:35.258Z,64.00
2019-04-29T20:53:09.891Z,63.90
2019-04-29T20:55:39.847Z,63.10
2019-04-29T20:58:09.836Z,59.40
2019-04-29T21:00:40.567Z,63.00
2019-04-29T21:03:11.616Z,63.00
2019-04-29T21:05:49.633Z,58.90
2019-04-29T21:08:16.218Z,64.10
2019-04-29T21:10:48.278Z,65.50
2019-04-29T21:13:20.346Z,68.20
2019-04-29T21:16:00.324Z,66.40
2019-04-29T21:18:30.255Z,62.70
2019-04-29T21:21:04.510Z,66.90
2019-04-29T21:23:35.450Z,67.80
2019-04-29T21:26:05.395Z,66.30
2019-04-29T21:28:38.230Z,67.90
2019-04-29T21:31:06.445Z,69.10
2019-04-29T21:33:36.383Z,67.00
2019-04-29T21:36:07.805Z,68.70
2019-04-29T21:38:48.655Z,71.00
2019-04-29T21:41:27.451Z,70.80
2019-04-29T21:43:57.763Z,60.70
2019-04-29T21:46:29.493Z,68.30
2019-04-29T21:48:59.196Z,69.60
2019-04-29T21:51:29.145Z,70.40
2019-04-29T21:53:59.017Z,70.90
2019-04-29T21:56:28.919Z,69.40
2019-04-29T21:59:02.729Z,72.30
2019-04-29T22:01:34.338Z,71.70
2019-04-29T22:04:02.404Z,68.50
2019-04-29T22:06:36.286Z,72.40
2019-04-29T22:09:08.346Z,66.40
2019-04-29T22:11:43.489Z,68.70
2019-04-29T22:14:14.004Z,71.90
2019-04-29T22:16:42.488Z,71.30
2019-04-29T22:19:12.391Z,71.00
2019-04-29T22:21:42.564Z,71.40
2019-04-29T22:24:12.420Z,74.60
2019-04-29T22:26:42.404Z,71.70
2019-04-29T22:29:12.314Z,76.70
2019-04-29T22:31:43.259Z,76.50
2019-04-29T22:34:15.209Z,78.30
2019-04-29T22:36:45.419Z,80.50
2019-04-29T22:39:16.186Z,79.70
2019-04-29T22:41:56.851Z,79.40
2019-04-29T22:44:27.321Z,84.30
2019-04-29T22:46:57.164Z,83.40
2019-04-29T22:49:29.179Z,84.70
2019-04-29T22:51:58.515Z,81.60
2019-04-29T22:54:28.535Z,84.10
2019-04-29T22:56:58.385Z,83.00
2019-04-29T22:59:28.326Z,85.10
2019-04-29T23:01:58.234Z,85.80
2019-04-29T23:04:28.102Z,84.30
2019-04-29T23:06:58.012Z,85.10
2019-04-29T23:09:27.861Z,86.90
2019-04-29T23:11:58.146Z,86.50
2019-04-29T23:14:28.035Z,84.70
2019-04-29T23:16:57.937Z,87.50
2019-04-29T23:19:27.873Z,87.50
2019-04-29T23:21:59.279Z,88.70
2019-04-29T23:24:33.566Z,87.90
2019-04-29T23:27:03.418Z,89.10
2019-04-29T23:29:37.062Z,89.60
2019-04-29T23:32:08.308Z,90.70
2019-04-29T23:34:38.387Z,89.80
2019-04-29T23:37:08.265Z,89.50
2019-04-29T23:39:38.169Z,91.30
2019-04-29T23:42:12.309Z,90.50
2019-04-29T23:44:42.389Z,91.80
2019-04-29T23:47:12.222Z,91.60
2019-04-29T23:49:44.411Z,91.60
2019-04-29T23:52:13.772Z,90.50
2019-04-29T23:54:45.557Z,90.10
2019-04-29T23:57:23.744Z,89.40
